West Pennsboro, Pennsylvania
Current Conditions -  °F | °C
As of 8:11 AM on Wednesday 22 Oct 2014 (Local Time) from KCXY Reporting Station
Broken Clouds Broken Clouds  
Wind Chill: 56°   Ceiling: 3200
Heat Index: 56°   Visibility: 10mi
Dew Point: 47°   Wind: 13mph
Humidity: 72%   Direction: 340°NNW
Pressure: 29.95"   Gusts: 18mph
Location:  40.183°N, 77.4166°W
Report Text: KCXY 221211Z 34011G16KT 10SM SCT027 BKN032 BKN065 13/08 A2995 RMK AO2 T01330083
Loading
Personal Weather Stations






























Interactive Weather Map
Tropical Storm Tracking
New forecast layout! Learn more

10-Day Weather Forecast

Advertisements
Track Severe Weather on mobile